createdAt,value
2023-07-02T00:01:51.460Z,69.08
2023-07-02T00:04:17.182Z,69.16
2023-07-02T00:06:41.629Z,69.08
2023-07-02T00:09:03.300Z,69.04
2023-07-02T00:11:24.979Z,69.00
2023-07-02T00:13:46.623Z,68.97
2023-07-02T00:16:08.317Z,69.16
2023-07-02T00:18:34.871Z,69.14
2023-07-02T00:20:56.772Z,68.76
2023-07-02T00:23:18.472Z,69.12
2023-07-02T00:25:40.170Z,69.02
2023-07-02T00:28:01.777Z,69.11
2023-07-02T00:30:23.480Z,69.16
2023-07-02T00:32:45.155Z,69.32
2023-07-02T00:35:07.768Z,69.21
2023-07-02T00:37:31.813Z,69.44
2023-07-02T00:39:53.589Z,69.29
2023-07-02T00:42:15.440Z,69.60
2023-07-02T00:44:41.711Z,69.29
2023-07-02T00:47:03.715Z,69.42
2023-07-02T00:49:25.594Z,69.87
2023-07-02T00:51:47.587Z,69.58
2023-07-02T00:54:09.733Z,69.38
2023-07-02T00:56:31.422Z,69.48
2023-07-02T00:58:59.883Z,69.40
2023-07-02T01:01:26.232Z,69.28
2023-07-02T01:03:53.460Z,69.39
2023-07-02T01:06:16.831Z,69.35
2023-07-02T01:08:38.464Z,69.40
2023-07-02T01:11:00.593Z,69.25
2023-07-02T01:13:25.295Z,69.22
2023-07-02T01:15:48.079Z,69.35
2023-07-02T01:18:11.606Z,69.15
2023-07-02T01:20:35.849Z,69.09
2023-07-02T01:23:03.764Z,69.23
2023-07-02T01:25:25.867Z,69.20
2023-07-02T01:27:47.818Z,69.16
2023-07-02T01:30:10.977Z,69.14
2023-07-02T01:32:32.741Z,69.21
2023-07-02T01:34:54.941Z,68.85
2023-07-02T01:37:20.595Z,69.01
2023-07-02T01:39:42.278Z,68.83
2023-07-02T01:42:21.012Z,69.05
2023-07-02T01:44:43.799Z,68.72
2023-07-02T01:47:06.455Z,67.28
2023-07-02T01:49:28.208Z,65.87
2023-07-02T01:51:54.454Z,64.51
2023-07-02T01:54:16.344Z,64.43
2023-07-02T01:56:38.031Z,64.64
2023-07-02T01:58:59.894Z,65.51
2023-07-02T02:01:22.229Z,65.70
2023-07-02T02:03:44.138Z,65.90
2023-07-02T02:06:05.902Z,66.07
2023-07-02T02:08:27.642Z,66.05
2023-07-02T02:10:49.518Z,66.35
2023-07-02T02:13:11.352Z,66.58
2023-07-02T02:15:33.154Z,66.68
2023-07-02T02:17:54.844Z,67.03
2023-07-02T02:20:16.690Z,67.06
2023-07-02T02:22:38.841Z,67.17
2023-07-02T02:25:00.544Z,67.30
2023-07-02T02:27:23.156Z,67.32
2023-07-02T02:29:44.892Z,67.49
2023-07-02T02:32:07.218Z,67.69
2023-07-02T02:34:30.549Z,67.62
2023-07-02T02:36:52.494Z,67.77
2023-07-02T02:39:15.119Z,68.00
2023-07-02T02:41:36.750Z,68.13
2023-07-02T02:43:58.573Z,68.22
2023-07-02T02:46:24.311Z,68.64
2023-07-02T02:48:46.307Z,68.69
2023-07-02T02:51:08.086Z,68.95
2023-07-02T02:53:29.722Z,68.92
2023-07-02T02:55:51.390Z,69.43
2023-07-02T02:58:13.176Z,69.41
2023-07-02T03:00:34.936Z,69.68
2023-07-02T03:02:56.794Z,69.53
2023-07-02T03:05:18.692Z,69.70
2023-07-02T03:07:40.476Z,69.89
2023-07-02T03:10:02.678Z,69.91
2023-07-02T03:12:27.384Z,70.09
2023-07-02T03:14:53.861Z,70.13
2023-07-02T03:17:15.586Z,70.50
2023-07-02T03:19:37.307Z,70.62
2023-07-02T03:21:58.929Z,70.64
2023-07-02T03:24:20.623Z,71.06
2023-07-02T03:26:42.912Z,70.89
2023-07-02T03:29:04.571Z,71.20
2023-07-02T03:31:26.519Z,71.23
2023-07-02T03:33:48.585Z,71.53
2023-07-02T03:36:10.273Z,71.36
2023-07-02T03:38:31.985Z,71.32
2023-07-02T03:40:53.647Z,71.35
2023-07-02T03:43:15.418Z,70.89
2023-07-02T03:45:37.136Z,70.80
2023-07-02T03:47:59.346Z,70.45
2023-07-02T03:50:21.296Z,70.18
2023-07-02T03:52:43.049Z,69.74
2023-07-02T03:55:05.854Z,70.06
2023-07-02T03:57:27.527Z,69.47
2023-07-02T03:59:49.597Z,69.37
2023-07-02T04:02:11.361Z,69.17
2023-07-02T04:04:33.150Z,69.34
2023-07-02T04:06:54.970Z,69.30
2023-07-02T04:09:16.720Z,69.17
2023-07-02T04:11:38.405Z,69.21
2023-07-02T04:14:00.133Z,69.18
2023-07-02T04:16:21.844Z,69.00
2023-07-02T04:18:43.550Z,69.06
2023-07-02T04:21:05.285Z,69.19
2023-07-02T04:23:26.943Z,69.25
2023-07-02T04:26:06.359Z,69.27
2023-07-02T04:28:30.994Z,69.53
2023-07-02T04:30:54.147Z,69.40
2023-07-02T04:33:16.320Z,69.26
2023-07-02T04:35:38.064Z,69.63
2023-07-02T04:37:59.991Z,69.75
2023-07-02T04:40:21.690Z,69.76
2023-07-02T04:42:50.223Z,69.54
2023-07-02T04:45:11.861Z,69.55
2023-07-02T04:47:34.212Z,69.76
2023-07-02T04:49:56.064Z,69.62
2023-07-02T04:52:17.781Z,69.58
2023-07-02T04:54:39.638Z,69.57
2023-07-02T04:57:02.630Z,69.38
2023-07-02T04:59:24.803Z,69.34
2023-07-02T05:01:46.484Z,69.35
2023-07-02T05:04:12.604Z,69.10
2023-07-02T05:06:34.373Z,68.97
2023-07-02T05:08:56.107Z,68.70
2023-07-02T05:11:18.815Z,68.29
2023-07-02T05:13:40.574Z,68.29
2023-07-02T05:16:02.296Z,67.94
2023-07-02T05:18:23.966Z,67.43
2023-07-02T05:20:45.844Z,67.01
2023-07-02T05:23:07.684Z,66.89
2023-07-02T05:25:29.391Z,66.78
2023-07-02T05:27:51.132Z,66.70
2023-07-02T05:30:13.695Z,66.65
2023-07-02T05:32:36.016Z,66.30
2023-07-02T05:34:57.771Z,65.91
2023-07-02T05:37:19.507Z,65.39
2023-07-02T05:39:41.206Z,65.09
2023-07-02T05:42:03.029Z,64.27
2023-07-02T05:44:24.812Z,63.05
2023-07-02T05:46:46.621Z,62.96
2023-07-02T05:49:08.444Z,62.33
2023-07-02T05:51:30.197Z,62.12
2023-07-02T05:53:52.500Z,61.83
2023-07-02T05:56:14.304Z,60.95
2023-07-02T05:58:47.265Z,60.87
2023-07-02T06:01:10.438Z,60.35
2023-07-02T06:03:32.134Z,60.53
2023-07-02T06:05:54.012Z,60.58
2023-07-02T06:08:19.798Z,59.55
2023-07-02T06:10:41.512Z,59.68
2023-07-02T06:13:03.239Z,59.10
2023-07-02T06:15:25.067Z,58.68
2023-07-02T06:17:46.901Z,58.56
2023-07-02T06:20:09.507Z,58.65
2023-07-02T06:22:31.898Z,58.11
2023-07-02T06:24:53.603Z,57.88
2023-07-02T06:27:15.434Z,57.68
2023-07-02T06:29:37.168Z,57.67
2023-07-02T06:31:58.860Z,57.32
2023-07-02T06:34:20.639Z,56.82
2023-07-02T06:36:43.571Z,56.68
2023-07-02T06:39:05.301Z,56.17
2023-07-02T06:41:27.305Z,55.94
2023-07-02T06:43:49.178Z,55.32
2023-07-02T06:46:12.949Z,55.14
2023-07-02T06:48:34.916Z,55.20
2023-07-02T06:50:57.188Z,55.77
2023-07-02T06:53:19.167Z,54.77
2023-07-02T06:55:40.891Z,54.39
2023-07-02T06:58:02.537Z,53.84
2023-07-02T07:00:24.265Z,54.08
2023-07-02T07:02:45.969Z,53.19
2023-07-02T07:05:08.163Z,52.44
2023-07-02T07:07:29.872Z,51.90
2023-07-02T07:09:51.553Z,52.42
2023-07-02T07:12:13.208Z,51.18
2023-07-02T07:14:34.985Z,51.38
2023-07-02T07:16:56.652Z,50.40
2023-07-02T07:19:18.349Z,50.81
2023-07-02T07:21:41.067Z,50.93
2023-07-02T07:24:03.309Z,50.57
2023-07-02T07:26:24.965Z,50.92
2023-07-02T07:28:46.695Z,50.54
2023-07-02T07:31:08.406Z,50.77
2023-07-02T07:33:30.089Z,51.51
2023-07-02T07:35:51.810Z,50.62
2023-07-02T07:38:16.920Z,50.49
2023-07-02T07:40:38.550Z,50.54
2023-07-02T07:43:00.431Z,50.98
2023-07-02T07:45:22.270Z,50.89
2023-07-02T07:47:44.403Z,50.62
2023-07-02T07:50:11.220Z,49.89
2023-07-02T07:52:33.728Z,50.21
2023-07-02T07:54:55.532Z,50.20
2023-07-02T07:57:17.267Z,50.60
2023-07-02T07:59:38.913Z,50.53
2023-07-02T08:02:00.686Z,50.60
2023-07-02T08:04:22.458Z,50.94
2023-07-02T08:06:45.562Z,50.76
2023-07-02T08:09:07.425Z,50.13
2023-07-02T08:11:29.833Z,49.78
2023-07-02T08:13:53.433Z,50.43
2023-07-02T08:16:16.783Z,49.51
2023-07-02T08:18:39.022Z,47.31
2023-07-02T08:21:00.718Z,47.37
2023-07-02T08:23:22.542Z,47.04
2023-07-02T08:25:44.219Z,47.14
2023-07-02T08:28:05.912Z,45.96
2023-07-02T08:30:27.626Z,46.94
2023-07-02T08:32:49.516Z,46.13
2023-07-02T08:35:11.239Z,45.16
2023-07-02T08:37:33.433Z,43.87
2023-07-02T08:39:55.203Z,45.24
2023-07-02T08:42:17.609Z,46.17
2023-07-02T08:44:39.564Z,46.15
2023-07-02T08:47:02.600Z,46.50
2023-07-02T08:49:24.702Z,46.16
2023-07-02T08:51:48.340Z,45.43
2023-07-02T08:54:10.089Z,45.72
2023-07-02T08:56:31.859Z,44.53
2023-07-02T08:58:54.281Z,44.94
2023-07-02T09:01:16.130Z,44.86
2023-07-02T09:03:39.481Z,44.51
2023-07-02T09:06:01.453Z,43.86
2023-07-02T09:08:28.678Z,44.02
2023-07-02T09:10:50.678Z,43.64
2023-07-02T09:13:12.691Z,43.96
2023-07-02T09:15:42.207Z,44.35
2023-07-02T09:18:04.090Z,44.40
2023-07-02T09:20:33.895Z,44.06
2023-07-02T09:22:56.084Z,44.14
2023-07-02T09:25:17.997Z,44.97
2023-07-02T09:27:42.870Z,45.38
2023-07-02T09:30:17.017Z,44.57
2023-07-02T09:32:39.345Z,44.92
2023-07-02T09:35:01.837Z,44.06
2023-07-02T09:37:23.852Z,43.52
2023-07-02T09:39:51.448Z,41.73
2023-07-02T09:42:13.198Z,42.05
2023-07-02T09:44:36.793Z,41.44
2023-07-02T09:47:10.326Z,42.46
2023-07-02T09:49:42.132Z,41.88
2023-07-02T09:52:07.915Z,41.24
2023-07-02T09:54:30.693Z,41.30
2023-07-02T09:56:52.606Z,40.81
2023-07-02T09:59:15.841Z,39.73
2023-07-02T10:01:38.609Z,40.04
2023-07-02T10:04:13.073Z,40.22
2023-07-02T10:06:55.943Z,40.73
2023-07-02T10:09:18.795Z,40.57
2023-07-02T10:11:40.487Z,40.28
2023-07-02T10:14:02.172Z,40.04
2023-07-02T10:16:23.897Z,40.61
2023-07-02T10:18:45.918Z,41.81
2023-07-02T10:21:16.888Z,40.97
2023-07-02T10:23:38.616Z,41.14
2023-07-02T10:26:12.302Z,41.00
2023-07-02T10:28:34.099Z,40.71
2023-07-02T10:30:56.793Z,41.29
2023-07-02T10:33:19.615Z,41.19
2023-07-02T10:35:46.046Z,40.63
2023-07-02T10:38:08.197Z,40.74
2023-07-02T10:40:30.793Z,40.96
2023-07-02T10:42:54.145Z,41.40
2023-07-02T10:45:16.996Z,40.98
2023-07-02T10:47:43.308Z,38.71
2023-07-02T10:50:21.587Z,39.30
2023-07-02T10:52:43.579Z,40.17
2023-07-02T10:55:06.521Z,39.76
2023-07-02T10:57:28.365Z,39.10
2023-07-02T10:59:50.201Z,39.25
2023-07-02T11:02:12.397Z,39.21
2023-07-02T11:04:35.228Z,39.20
2023-07-02T11:06:57.125Z,40.24
2023-07-02T11:09:21.971Z,40.92
2023-07-02T11:11:59.675Z,40.20
2023-07-02T11:14:50.905Z,39.92
2023-07-02T11:17:12.927Z,39.40
2023-07-02T11:19:36.179Z,39.74
2023-07-02T11:21:59.964Z,39.96
2023-07-02T11:24:37.012Z,40.40
2023-07-02T11:27:00.399Z,40.79
2023-07-02T11:29:22.366Z,40.79
2023-07-02T11:31:44.775Z,40.49
2023-07-02T11:34:24.391Z,40.20
2023-07-02T11:36:48.119Z,40.53
2023-07-02T11:39:10.205Z,41.54
2023-07-02T11:41:42.626Z,41.49
2023-07-02T11:44:04.580Z,41.46
2023-07-02T11:46:26.426Z,41.50
2023-07-02T11:48:48.288Z,41.84
2023-07-02T11:51:10.202Z,41.58
2023-07-02T11:53:32.214Z,41.24
2023-07-02T11:55:54.038Z,40.61
2023-07-02T11:58:15.871Z,40.44
2023-07-02T12:00:37.638Z,39.92
2023-07-02T12:02:59.548Z,39.39
2023-07-02T12:05:21.586Z,39.51
2023-07-02T12:07:43.300Z,38.44
2023-07-02T12:10:08.397Z,38.98
2023-07-02T12:12:30.133Z,39.45
2023-07-02T12:14:51.940Z,38.25
2023-07-02T12:17:13.836Z,38.46
2023-07-02T12:19:35.525Z,38.94
2023-07-02T12:21:57.335Z,38.67
2023-07-02T12:24:19.226Z,39.13
2023-07-02T12:26:42.065Z,39.66
2023-07-02T12:29:05.119Z,40.07
2023-07-02T12:31:26.986Z,39.53
2023-07-02T12:33:48.761Z,38.91
2023-07-02T12:36:10.706Z,39.87
2023-07-02T12:38:32.545Z,39.80
2023-07-02T12:40:54.327Z,38.41
2023-07-02T12:43:16.248Z,38.70
2023-07-02T12:45:38.088Z,37.17
2023-07-02T12:47:59.910Z,36.81
2023-07-02T12:50:22.018Z,37.51
2023-07-02T12:52:43.973Z,37.77
2023-07-02T12:55:06.390Z,38.26
2023-07-02T12:57:28.574Z,38.40
2023-07-02T12:59:50.389Z,38.26
2023-07-02T13:02:12.275Z,38.02
2023-07-02T13:04:34.580Z,36.66
2023-07-02T13:06:56.330Z,36.15
2023-07-02T13:09:18.080Z,35.35
2023-07-02T13:11:39.957Z,35.33
2023-07-02T13:14:01.681Z,34.89
2023-07-02T13:16:23.393Z,34.51
2023-07-02T13:18:45.141Z,33.08
2023-07-02T13:21:06.757Z,32.89
2023-07-02T13:23:28.568Z,33.52
2023-07-02T13:25:50.480Z,34.59
2023-07-02T13:28:13.521Z,34.86
2023-07-02T13:30:35.225Z,35.19
2023-07-02T13:32:57.020Z,35.54
2023-07-02T13:35:18.688Z,35.27
2023-07-02T13:37:40.477Z,35.32
2023-07-02T13:40:04.825Z,34.65
2023-07-02T13:42:27.374Z,34.37
2023-07-02T13:44:49.081Z,34.54
2023-07-02T13:47:12.214Z,33.65
2023-07-02T13:49:34.548Z,34.14
2023-07-02T13:51:56.235Z,34.35
2023-07-02T13:54:19.690Z,35.03
2023-07-02T13:56:41.476Z,34.92
2023-07-02T13:59:04.964Z,34.02
2023-07-02T14:01:27.720Z,34.65
2023-07-02T14:03:49.725Z,35.32
2023-07-02T14:06:11.491Z,35.47
2023-07-02T14:08:33.204Z,34.99
2023-07-02T14:10:54.966Z,33.86
2023-07-02T14:13:16.657Z,34.65
2023-07-02T14:15:38.667Z,34.55
2023-07-02T14:18:00.532Z,34.79
2023-07-02T14:20:22.448Z,35.08
2023-07-02T14:22:45.878Z,34.54
2023-07-02T14:25:10.077Z,35.05
2023-07-02T14:27:31.921Z,34.71
2023-07-02T14:29:53.693Z,34.04
2023-07-02T14:32:15.986Z,34.58
2023-07-02T14:34:37.797Z,33.90
2023-07-02T14:37:00.085Z,33.93
2023-07-02T14:39:21.831Z,35.17
2023-07-02T14:41:43.549Z,34.40
2023-07-02T14:44:05.966Z,33.67
2023-07-02T14:46:27.732Z,33.85
2023-07-02T14:48:49.501Z,33.84
2023-07-02T14:51:11.143Z,33.34
2023-07-02T14:53:34.680Z,33.72
2023-07-02T14:56:01.391Z,33.51
2023-07-02T14:58:24.435Z,33.95
2023-07-02T15:00:47.273Z,34.05
2023-07-02T15:03:10.641Z,33.53
2023-07-02T15:05:32.531Z,33.64
2023-07-02T15:07:54.271Z,33.42
2023-07-02T15:10:16.032Z,33.42
2023-07-02T15:12:38.882Z,33.75
2023-07-02T15:15:00.716Z,33.22
2023-07-02T15:17:22.589Z,32.79
2023-07-02T15:19:44.274Z,32.80
2023-07-02T15:22:06.064Z,33.23
2023-07-02T15:24:27.872Z,33.23
2023-07-02T15:26:49.715Z,33.80
2023-07-02T15:29:11.422Z,34.20
2023-07-02T15:31:33.369Z,33.89
2023-07-02T15:33:55.469Z,32.58
2023-07-02T15:36:17.224Z,32.57
2023-07-02T15:38:39.007Z,33.13
2023-07-02T15:41:12.126Z,32.77
2023-07-02T15:43:34.366Z,32.85
2023-07-02T15:45:56.021Z,33.65
2023-07-02T15:48:17.720Z,33.36
2023-07-02T15:50:39.466Z,33.26
2023-07-02T15:53:01.183Z,33.41
2023-07-02T15:55:23.223Z,32.80
2023-07-02T15:57:46.812Z,33.19
2023-07-02T16:00:09.847Z,33.24
2023-07-02T16:02:37.433Z,33.56
2023-07-02T16:04:59.415Z,33.73
2023-07-02T16:07:21.203Z,33.78
2023-07-02T16:09:43.016Z,33.36
2023-07-02T16:12:05.403Z,33.91
2023-07-02T16:14:27.071Z,34.07
2023-07-02T16:16:55.040Z,33.59
2023-07-02T16:19:16.849Z,33.70
2023-07-02T16:21:40.963Z,34.16
2023-07-02T16:24:02.732Z,33.61
2023-07-02T16:26:24.504Z,34.19
2023-07-02T16:28:46.183Z,34.17
2023-07-02T16:31:10.351Z,34.51
2023-07-02T16:33:34.582Z,34.90
2023-07-02T16:35:56.520Z,35.12
2023-07-02T16:38:18.694Z,35.29
2023-07-02T16:40:40.894Z,35.68
2023-07-02T16:43:03.433Z,36.11
2023-07-02T16:45:25.142Z,35.64
2023-07-02T16:47:47.547Z,35.49
2023-07-02T16:50:09.932Z,35.47
2023-07-02T16:52:31.948Z,34.65
2023-07-02T16:54:53.905Z,34.95
2023-07-02T16:57:15.595Z,35.41
2023-07-02T16:59:38.488Z,35.53
2023-07-02T17:02:00.586Z,36.00
2023-07-02T17:04:24.732Z,36.53
2023-07-02T17:06:51.519Z,36.25
2023-07-02T17:09:24.902Z,36.37
2023-07-02T17:11:46.738Z,36.49
2023-07-02T17:14:08.377Z,36.20
2023-07-02T17:16:30.055Z,36.23
2023-07-02T17:18:51.968Z,35.80
2023-07-02T17:21:13.709Z,36.23
2023-07-02T17:23:35.405Z,36.09
2023-07-02T17:26:07.444Z,36.75
2023-07-02T17:28:30.800Z,36.92
2023-07-02T17:30:53.707Z,37.00
2023-07-02T17:33:15.470Z,37.03
2023-07-02T17:35:43.326Z,37.00
2023-07-02T17:38:05.173Z,36.79
2023-07-02T17:40:26.899Z,37.47
2023-07-02T17:42:48.559Z,37.45
2023-07-02T17:45:11.000Z,37.56
2023-07-02T17:47:32.646Z,37.54
2023-07-02T17:49:54.347Z,37.22
2023-07-02T17:52:21.791Z,37.72
2023-07-02T17:54:47.414Z,37.79
2023-07-02T17:57:11.562Z,37.89
2023-07-02T17:59:34.730Z,37.93
2023-07-02T18:01:58.059Z,38.15
2023-07-02T18:04:21.711Z,38.58
2023-07-02T18:06:46.912Z,38.58
2023-07-02T18:09:08.816Z,38.91
2023-07-02T18:11:30.788Z,38.79
2023-07-02T18:13:52.488Z,39.14
2023-07-02T18:16:14.623Z,39.40
2023-07-02T18:18:36.431Z,39.47
2023-07-02T18:20:58.529Z,39.92
2023-07-02T18:23:21.404Z,39.83
2023-07-02T18:25:43.279Z,40.07
2023-07-02T18:28:15.229Z,40.14
2023-07-02T18:30:42.553Z,40.24
2023-07-02T18:33:07.381Z,40.81
2023-07-02T18:35:29.272Z,40.70
2023-07-02T18:37:51.727Z,40.70
2023-07-02T18:40:15.350Z,40.95
2023-07-02T18:42:37.078Z,41.16
2023-07-02T18:44:58.754Z,41.47
2023-07-02T18:47:22.140Z,41.06
2023-07-02T18:49:43.798Z,41.08
2023-07-02T18:52:14.957Z,41.40
2023-07-02T18:54:37.434Z,41.61
2023-07-02T18:56:59.132Z,41.68
2023-07-02T18:59:20.839Z,41.81
2023-07-02T19:01:42.539Z,42.18
2023-07-02T19:04:05.629Z,42.52
2023-07-02T19:06:27.376Z,42.70
2023-07-02T19:08:49.385Z,42.79
2023-07-02T19:11:11.187Z,42.86
2023-07-02T19:13:33.698Z,43.15
2023-07-02T19:15:55.751Z,43.15
2023-07-02T19:18:17.475Z,43.03
2023-07-02T19:20:39.127Z,43.16
2023-07-02T19:23:01.149Z,43.49
2023-07-02T19:25:23.521Z,43.68
2023-07-02T19:27:45.143Z,43.65
2023-07-02T19:30:09.013Z,44.17
2023-07-02T19:32:33.801Z,44.70
2023-07-02T19:34:57.835Z,44.74
2023-07-02T19:37:22.528Z,45.05
2023-07-02T19:39:44.191Z,45.10
2023-07-02T19:42:08.412Z,45.18
2023-07-02T19:44:30.125Z,45.25
2023-07-02T19:46:51.752Z,45.42
2023-07-02T19:49:17.524Z,45.44
2023-07-02T19:51:40.800Z,45.57
2023-07-02T19:54:04.412Z,45.68
2023-07-02T19:56:26.076Z,45.91
2023-07-02T19:58:49.774Z,45.92
2023-07-02T20:01:14.043Z,46.24
2023-07-02T20:03:35.795Z,46.21
2023-07-02T20:05:58.056Z,46.35
2023-07-02T20:08:20.245Z,46.37
2023-07-02T20:10:41.967Z,46.71
2023-07-02T20:13:04.020Z,47.19
2023-07-02T20:15:25.722Z,47.32
2023-07-02T20:17:47.468Z,47.17
2023-07-02T20:20:10.098Z,47.46
2023-07-02T20:22:32.252Z,47.36
2023-07-02T20:24:53.969Z,47.84
2023-07-02T20:27:19.715Z,47.72
2023-07-02T20:29:41.621Z,47.87
2023-07-02T20:32:03.617Z,48.25
2023-07-02T20:34:27.298Z,48.15
2023-07-02T20:36:52.026Z,48.53
2023-07-02T20:39:13.873Z,48.37
2023-07-02T20:41:35.706Z,49.21
2023-07-02T20:44:01.309Z,49.23
2023-07-02T20:46:24.469Z,49.47
2023-07-02T20:48:46.213Z,49.30
2023-07-02T20:51:07.884Z,50.00
2023-07-02T20:53:29.522Z,49.86
2023-07-02T20:55:56.473Z,49.76
2023-07-02T20:58:18.483Z,49.84
2023-07-02T21:00:50.236Z,49.79
2023-07-02T21:03:19.465Z,49.89
2023-07-02T21:05:41.140Z,50.49
2023-07-02T21:08:02.779Z,50.45
2023-07-02T21:10:24.549Z,50.63
2023-07-02T21:12:46.218Z,50.19
2023-07-02T21:15:08.865Z,50.37
2023-07-02T21:17:30.601Z,50.48
2023-07-02T21:19:52.250Z,50.50
2023-07-02T21:22:14.396Z,50.57
2023-07-02T21:24:36.090Z,51.11
2023-07-02T21:26:58.334Z,50.99
2023-07-02T21:29:20.024Z,51.42
2023-07-02T21:31:41.705Z,51.45
2023-07-02T21:34:03.453Z,51.32
2023-07-02T21:36:25.175Z,51.38
2023-07-02T21:38:47.930Z,51.67
2023-07-02T21:41:09.780Z,51.80
2023-07-02T21:43:31.778Z,51.83
2023-07-02T21:45:55.852Z,52.55
2023-07-02T21:48:17.488Z,52.37
2023-07-02T21:50:39.410Z,52.65
2023-07-02T21:53:01.058Z,52.71
2023-07-02T21:55:22.703Z,52.65
2023-07-02T21:57:44.893Z,52.37
2023-07-02T22:00:11.704Z,52.07
2023-07-02T22:02:39.209Z,52.07
2023-07-02T22:05:01.011Z,51.85
2023-07-02T22:07:22.782Z,51.13
2023-07-02T22:09:44.475Z,51.07
2023-07-02T22:12:06.934Z,50.64
2023-07-02T22:14:28.611Z,50.40
2023-07-02T22:16:50.893Z,50.09
2023-07-02T22:19:12.934Z,50.18
2023-07-02T22:21:34.887Z,49.83
2023-07-02T22:23:56.593Z,49.94
2023-07-02T22:26:18.416Z,49.83
2023-07-02T22:28:40.032Z,49.77
2023-07-02T22:31:03.277Z,49.77
2023-07-02T22:33:25.097Z,49.74
2023-07-02T22:35:49.232Z,49.85
2023-07-02T22:38:12.109Z,49.72
2023-07-02T22:40:33.821Z,49.51
2023-07-02T22:42:55.547Z,49.44
2023-07-02T22:45:17.747Z,49.58
2023-07-02T22:47:41.287Z,49.40
2023-07-02T22:50:05.011Z,49.67
2023-07-02T22:52:26.820Z,49.60
2023-07-02T22:54:48.493Z,50.06
2023-07-02T22:57:10.121Z,49.78
2023-07-02T22:59:31.809Z,49.77
2023-07-02T23:01:54.388Z,49.86
2023-07-02T23:04:16.312Z,49.94
2023-07-02T23:06:39.366Z,49.96
2023-07-02T23:09:00.983Z,50.09
2023-07-02T23:11:22.634Z,49.98
2023-07-02T23:13:44.485Z,49.86
2023-07-02T23:16:07.382Z,50.11
2023-07-02T23:18:30.549Z,50.30
2023-07-02T23:20:55.243Z,50.23
2023-07-02T23:23:17.088Z,50.27
2023-07-02T23:25:39.000Z,50.21
2023-07-02T23:28:04.362Z,50.19
2023-07-02T23:30:28.494Z,50.38
2023-07-02T23:32:51.535Z,50.60
2023-07-02T23:35:15.343Z,50.42
2023-07-02T23:37:38.248Z,50.59
2023-07-02T23:40:00.662Z,50.70
2023-07-02T23:42:22.391Z,50.96
2023-07-02T23:44:44.150Z,50.86
2023-07-02T23:47:06.139Z,50.84
2023-07-02T23:49:27.776Z,50.91
2023-07-02T23:51:49.450Z,51.04
2023-07-02T23:54:11.077Z,51.18
2023-07-02T23:56:32.704Z,51.35
2023-07-02T23:58:54.334Z,51.28
